Time;durP1;ratioP1;P1;durP2;ratioP2;P2;SDS_P1;SDS_P2;PMS_P1;PMS_P2;Temp;Humidity;BMP_temperature;BMP_pressure;BME280_temperature;BME280_humidity;BME280_pressure;Samples;Min_cycle;Max_cycle;Signal;HPM_P1;HPM_P2
2022/12/21 00:02:24;;;;;;;83.47;46.78;;;3.10;99.90;;;;;;5034085;28;20072;-72
2022/12/21 00:04:52;;;;;;;78.55;45.15;;;3.20;99.90;;;;;;5034078;28;20425;-70
2022/12/21 00:07:19;;;;;;;87.88;47.10;;;3.20;99.90;;;;;;5034030;28;20045;-72
2022/12/21 00:09:47;;;;;;;85.47;48.17;;;3.20;99.90;;;;;;5033973;28;20088;-72
2022/12/21 00:12:14;;;;;;;87.50;48.17;;;3.30;99.90;;;;;;5034010;28;20118;-71
2022/12/21 00:14:42;;;;;;;87.65;46.38;;;3.40;99.90;;;;;;5034337;28;20108;-71
2022/12/21 00:17:09;;;;;;;82.97;47.17;;;3.30;99.90;;;;;;5033801;28;20048;-73
2022/12/21 00:19:40;;;;;;;84.13;47.25;;;3.30;99.90;;;;;;5032246;28;20408;-73
2022/12/21 00:22:07;;;;;;;81.45;45.53;;;3.20;99.90;;;;;;5015637;28;20052;-72
2022/12/21 00:24:35;;;;;;;76.63;46.88;;;3.10;99.90;;;;;;5033819;28;20392;-72
2022/12/21 00:27:03;;;;;;;78.20;44.65;;;2.90;99.90;;;;;;5033421;28;20484;-72
2022/12/21 00:29:30;;;;;;;83.35;44.58;;;3.00;99.90;;;;;;5033732;28;20087;-72
2022/12/21 00:32:03;;;;;;;80.32;45.28;;;3.00;99.90;;;;;;5033256;28;20401;-73
2022/12/21 00:34:31;;;;;;;77.95;47.20;;;3.00;99.90;;;;;;5000127;28;20049;-71
2022/12/21 00:36:59;;;;;;;91.03;50.25;;;2.90;99.90;;;;;;5015269;28;20103;-73
2022/12/21 00:39:26;;;;;;;93.95;48.67;;;2.90;99.90;;;;;;5033514;28;20069;-72
2022/12/21 00:41:56;;;;;;;92.63;50.08;;;2.80;99.90;;;;;;5033762;28;20491;-69
2022/12/21 00:44:24;;;;;;;88.68;51.83;;;2.90;99.90;;;;;;4999989;28;20094;-71
2022/12/21 00:46:51;;;;;;;89.93;49.03;;;2.90;99.90;;;;;;4999537;28;20038;-73
2022/12/21 00:49:18;;;;;;;85.20;46.53;;;2.90;99.90;;;;;;5032958;28;20453;-73
2022/12/21 00:51:52;;;;;;;80.60;44.75;;;2.80;99.90;;;;;;4999581;28;20053;-70
2022/12/21 00:54:19;;;;;;;81.40;43.47;;;2.70;99.90;;;;;;5015874;28;20045;-71
2022/12/21 00:56:46;;;;;;;77.20;40.45;;;2.50;99.90;;;;;;4999346;28;20487;-73
2022/12/21 00:59:17;;;;;;;65.85;36.40;;;2.60;99.90;;;;;;5033135;28;20061;-72
2022/12/21 01:01:44;;;;;;;66.32;37.10;;;2.70;99.90;;;;;;4999110;28;20083;-71
2022/12/21 01:04:11;;;;;;;67.55;37.35;;;2.70;99.90;;;;;;5033165;28;20037;-70
2022/12/21 01:06:38;;;;;;;68.13;36.67;;;2.80;99.90;;;;;;5032849;28;20119;-71
2022/12/21 01:09:07;;;;;;;67.82;34.85;;;2.70;99.90;;;;;;5032744;28;20045;-71
2022/12/21 01:11:35;;;;;;;64.03;35.65;;;2.70;99.90;;;;;;5033123;28;20057;-72
2022/12/21 01:14:02;;;;;;;61.22;36.83;;;2.80;99.90;;;;;;5033029;28;20472;-73
2022/12/21 01:16:31;;;;;;;64.70;34.70;;;2.80;99.90;;;;;;4999134;28;20163;-74
2022/12/21 01:19:00;;;;;;;68.53;36.47;;;2.80;99.90;;;;;;5032809;28;20042;-72
2022/12/21 01:21:30;;;;;;;61.20;35.30;;;2.60;99.90;;;;;;5014956;28;20083;-72
2022/12/21 01:23:58;;;;;;;65.07;35.47;;;2.60;99.90;;;;;;5032914;28;20083;-72
2022/12/21 01:26:27;;;;;;;57.30;33.45;;;2.60;99.90;;;;;;5032893;28;20049;-74
2022/12/21 01:28:57;;;;;;;61.10;34.58;;;2.70;99.90;;;;;;4999025;28;20591;-71
2022/12/21 01:31:25;;;;;;;56.80;33.42;;;2.70;99.90;;;;;;5032313;28;20127;-71
2022/12/21 01:33:52;;;;;;;60.17;33.65;;;2.70;99.90;;;;;;5031869;28;20516;-72
2022/12/21 01:36:20;;;;;;;57.90;34.28;;;2.70;99.90;;;;;;5032690;28;20693;-71
2022/12/21 01:38:47;;;;;;;59.05;33.80;;;2.70;99.90;;;;;;5031221;28;20115;-72
2022/12/21 01:41:20;;;;;;;59.30;34.13;;;2.70;99.90;;;;;;5032705;28;20400;-71
2022/12/21 01:43:55;;;;;;;57.08;33.22;;;2.70;99.90;;;;;;5032423;28;20389;-71
2022/12/21 01:46:31;;;;;;;59.38;33.65;;;2.70;99.90;;;;;;5032366;28;20068;-70
2022/12/21 01:49:19;;;;;;;60.45;34.08;;;2.60;99.90;;;;;;5032329;28;20068;-72
2022/12/21 01:51:58;;;;;;;63.03;35.25;;;2.70;99.90;;;;;;5032174;28;20064;-73
2022/12/21 01:54:33;;;;;;;59.53;33.20;;;2.60;99.90;;;;;;5033788;28;20045;-70
2022/12/21 01:57:04;;;;;;;63.88;35.28;;;2.60;99.90;;;;;;5031751;28;20073;-73
2022/12/21 01:59:47;;;;;;;64.90;34.50;;;2.60;99.90;;;;;;5047536;28;20501;-70
2022/12/21 02:02:20;;;;;;;67.35;38.17;;;2.60;99.90;;;;;;5033515;28;20453;-71
2022/12/21 02:04:49;;;;;;;60.72;35.78;;;2.60;99.90;;;;;;5051779;28;20038;-70
2022/12/21 02:07:18;;;;;;;62.65;36.03;;;2.60;99.90;;;;;;5035967;28;20038;-72
2022/12/21 02:09:46;;;;;;;62.63;36.47;;;2.60;99.90;;;;;;5036754;28;20045;-73
2022/12/21 02:12:15;;;;;;;62.20;34.63;;;2.70;99.90;;;;;;5036374;28;20124;-71
2022/12/21 02:14:46;;;;;;;61.75;34.38;;;2.60;99.90;;;;;;5036266;28;20037;-71
2022/12/21 02:17:26;;;;;;;60.75;35.47;;;2.70;99.90;;;;;;5035919;28;20073;-73
2022/12/21 02:20:30;;;;;;;59.22;33.83;;;2.70;99.90;;;;;;5036435;28;20499;-73
2022/12/21 02:23:25;;;;;;;54.60;32.55;;;2.70;99.90;;;;;;5036384;28;20045;-72
2022/12/21 02:26:14;;;;;;;64.45;34.60;;;2.60;99.90;;;;;;5035894;28;20389;-72
2022/12/21 02:29:06;;;;;;;53.20;31.65;;;2.50;99.90;;;;;;5035970;28;20450;-72
2022/12/21 02:32:04;;;;;;;52.42;29.77;;;2.50;99.90;;;;;;5035948;28;20045;-72
2022/12/21 02:34:52;;;;;;;44.95;28.17;;;2.40;99.90;;;;;;5035709;28;20041;-71
2022/12/21 02:37:23;;;;;;;48.92;27.75;;;2.50;99.90;;;;;;5034323;28;20049;-71
2022/12/21 02:40:17;;;;;;;47.78;28.08;;;2.60;99.90;;;;;;5036106;28;20045;-71
2022/12/21 02:45:57;;;;;;;45.42;28.20;;;2.40;99.90;;;;;;5035183;28;20045;-68
2022/12/21 02:48:27;;;;;;;41.25;27.25;;;2.50;99.90;;;;;;5035470;28;20401;-69
2022/12/21 02:50:59;;;;;;;47.65;26.83;;;2.30;99.90;;;;;;5035569;28;20049;-70
2022/12/21 02:53:34;;;;;;;60.58;29.85;;;2.40;99.90;;;;;;5035616;28;20095;-69
2022/12/21 02:56:02;;;;;;;49.15;28.55;;;2.30;99.90;;;;;;5035559;28;20041;-69
2022/12/21 02:58:30;;;;;;;50.03;28.50;;;2.30;99.90;;;;;;5033664;28;20129;-70
2022/12/21 03:01:18;;;;;;;46.80;28.58;;;2.40;99.90;;;;;;5035539;28;20041;-71
2022/12/21 03:04:19;;;;;;;46.60;27.33;;;2.30;99.90;;;;;;5035316;28;20049;-71
2022/12/21 03:06:56;;;;;;;43.58;27.17;;;2.30;99.90;;;;;;5034915;28;20412;-72
2022/12/21 03:09:59;;;;;;;48.42;27.48;;;2.20;99.90;;;;;;5035337;28;20039;-69
2022/12/21 03:12:45;;;;;;;53.13;29.05;;;2.20;99.90;;;;;;5035143;28;20060;-72
2022/12/21 03:15:18;;;;;;;47.63;26.80;;;2.20;99.90;;;;;;5034933;28;20041;-71
2022/12/21 03:17:53;;;;;;;46.75;28.60;;;2.40;99.90;;;;;;5035208;28;20053;-71
2022/12/21 03:20:37;;;;;;;50.15;27.17;;;2.40;99.90;;;;;;5034105;28;20034;-72
2022/12/21 03:23:26;;;;;;;49.85;25.98;;;2.40;99.90;;;;;;5034868;28;20041;-72
2022/12/21 03:26:29;;;;;;;36.90;23.30;;;2.40;99.90;;;;;;5034882;28;20049;-72
2022/12/21 03:28:59;;;;;;;42.58;23.45;;;2.40;99.90;;;;;;4954375;29;20043;-73
2022/12/21 03:31:32;;;;;;;42.50;24.20;;;2.30;99.90;;;;;;5020493;28;20065;-73
2022/12/21 03:34:32;;;;;;;39.10;22.90;;;2.10;99.90;;;;;;5035065;28;20458;-72
2022/12/21 03:37:08;;;;;;;41.80;23.35;;;2.10;99.90;;;;;;5033594;28;20041;-73
2022/12/21 03:39:41;;;;;;;38.05;22.70;;;2.20;99.90;;;;;;5034551;28;20069;-73
2022/12/21 03:42:18;;;;;;;39.03;23.33;;;2.20;99.90;;;;;;5034640;28;20096;-73
2022/12/21 03:44:50;;;;;;;47.25;25.42;;;2.10;99.90;;;;;;5034253;28;20049;-73
2022/12/21 03:47:24;;;;;;;39.40;24.60;;;1.90;99.90;;;;;;5034499;28;20049;-73
2022/12/21 03:49:55;;;;;;;41.92;24.20;;;1.80;99.90;;;;;;5033167;28;20042;-72
2022/12/21 03:52:28;;;;;;;43.42;25.33;;;1.90;99.90;;;;;;5034249;28;20539;-70
2022/12/21 03:55:06;;;;;;;44.28;24.52;;;1.90;99.90;;;;;;5034440;28;20477;-72
2022/12/21 03:57:35;;;;;;;44.40;26.23;;;2.00;99.90;;;;;;5034286;28;20045;-72
2022/12/21 04:00:05;;;;;;;40.88;24.73;;;2.00;99.90;;;;;;5032891;28;20045;-71
2022/12/21 04:02:58;;;;;;;38.22;23.73;;;2.10;99.90;;;;;;5034074;28;20072;-71
2022/12/21 04:05:32;;;;;;;44.88;24.02;;;2.20;99.90;;;;;;5025811;28;20068;-71
2022/12/21 04:08:00;;;;;;;44.67;24.00;;;2.20;99.90;;;;;;5034156;28;20042;-71
2022/12/21 04:10:28;;;;;;;42.45;24.20;;;2.20;99.90;;;;;;5033750;28;20116;-71
2022/12/21 04:12:55;;;;;;;42.83;23.35;;;2.20;99.90;;;;;;5033811;28;20069;-71
2022/12/21 04:16:02;;;;;;;41.22;22.70;;;2.20;99.90;;;;;;5033844;28;20037;-71
2022/12/21 04:18:13;;;;;;;46.25;24.58;;;2.20;99.90;;;;;;5033999;28;20529;-71
2022/12/21 04:20:41;;;;;;;39.88;23.38;;;2.10;99.90;;;;;;5033779;28;20098;-70
2022/12/21 04:29:38;;;;;;;42.53;23.92;;;2.00;99.90;;;;;;5011449;28;20101;-69
2022/12/21 04:32:05;;;;;;;43.88;24.63;;;1.90;99.90;;;;;;4961127;28;20081;-69
2022/12/21 04:34:33;;;;;;;41.15;24.75;;;1.90;99.90;;;;;;5010275;28;20057;-70
2022/12/21 04:39:46;;;;;;;39.42;24.58;;;1.90;99.90;;;;;;5033199;28;20103;-70
2022/12/21 04:42:13;;;;;;;40.95;25.48;;;1.90;99.90;;;;;;5033828;28;20052;-71
2022/12/21 04:44:40;;;;;;;43.83;23.75;;;1.90;99.90;;;;;;5033312;28;20056;-70
2022/12/21 04:47:08;;;;;;;42.80;24.33;;;1.90;99.90;;;;;;5033303;28;20061;-73
2022/12/21 04:49:35;;;;;;;38.80;25.25;;;1.90;99.90;;;;;;5032979;28;20053;-72
2022/12/21 04:52:05;;;;;;;43.00;25.02;;;2.00;99.90;;;;;;5033122;28;20392;-71
2022/12/21 04:54:32;;;;;;;40.70;23.90;;;2.00;99.90;;;;;;5033402;28;20041;-72
2022/12/21 04:57:00;;;;;;;40.53;23.88;;;1.90;99.90;;;;;;5033256;28;20107;-71
2022/12/21 04:59:27;;;;;;;39.95;23.35;;;2.00;99.90;;;;;;5032666;28;20053;-73
2022/12/21 05:01:54;;;;;;;39.28;23.63;;;2.00;99.90;;;;;;5033499;28;20171;-70
2022/12/21 05:04:22;;;;;;;43.17;23.27;;;1.90;99.90;;;;;;5033063;28;20378;-70
2022/12/21 05:06:50;;;;;;;42.08;23.33;;;1.80;99.90;;;;;;5031518;28;20045;-70
2022/12/21 05:09:18;;;;;;;40.55;24.10;;;2.00;99.90;;;;;;5033265;28;20041;-71
2022/12/21 05:11:44;;;;;;;44.15;24.25;;;2.00;99.90;;;;;;5033331;28;20107;-72
2022/12/21 05:14:11;;;;;;;42.83;25.10;;;2.00;99.90;;;;;;5048350;28;20132;-71
2022/12/21 05:16:38;;;;;;;38.17;24.60;;;1.90;99.90;;;;;;5032670;28;20061;-72
2022/12/21 05:19:06;;;;;;;37.13;23.05;;;1.90;99.90;;;;;;5033555;28;20431;-72
2022/12/21 05:21:33;;;;;;;41.65;23.70;;;1.90;99.90;;;;;;5032475;28;20060;-73
2022/12/21 05:24:01;;;;;;;42.88;23.38;;;1.80;99.90;;;;;;5032845;28;20391;-72
2022/12/21 05:26:28;;;;;;;43.85;25.58;;;1.80;99.90;;;;;;5032477;28;20491;-73
2022/12/21 05:28:55;;;;;;;48.13;25.63;;;1.90;99.90;;;;;;5032537;28;20037;-71
2022/12/21 05:31:23;;;;;;;49.95;27.88;;;2.00;99.90;;;;;;5032453;28;20041;-72
2022/12/21 05:33:51;;;;;;;47.83;27.40;;;2.10;99.90;;;;;;5032828;28;20447;-70
2022/12/21 05:36:22;;;;;;;46.13;26.77;;;2.20;99.90;;;;;;5031600;28;20556;-70
2022/12/21 05:38:49;;;;;;;64.13;29.10;;;2.20;99.90;;;;;;5032493;28;20370;-71
2022/12/21 05:41:27;;;;;;;47.70;27.48;;;2.40;99.90;;;;;;5032681;28;20041;-69
2022/12/21 05:43:55;;;;;;;40.70;23.88;;;2.40;99.90;;;;;;5032571;28;20176;-72
2022/12/21 05:46:23;;;;;;;37.72;23.77;;;2.20;99.90;;;;;;5032226;28;20107;-73
2022/12/21 05:48:54;;;;;;;80.82;40.38;;;2.10;99.90;;;;;;5015586;28;20046;-71
2022/12/21 05:51:22;;;;;;;51.38;30.27;;;2.10;99.90;;;;;;5032582;28;20436;-72
2022/12/21 05:53:50;;;;;;;37.15;23.38;;;2.10;99.90;;;;;;5032618;28;20116;-71
2022/12/21 05:56:17;;;;;;;36.78;23.08;;;2.00;99.90;;;;;;5031876;28;20034;-70
2022/12/21 05:58:45;;;;;;;32.65;21.98;;;2.00;99.90;;;;;;5032514;28;20061;-72
2022/12/21 06:01:13;;;;;;;35.67;22.75;;;2.10;99.90;;;;;;5032289;28;20132;-70
2022/12/21 06:03:41;;;;;;;37.92;23.08;;;2.00;99.90;;;;;;5032366;28;20063;-71
2022/12/21 06:06:14;;;;;;;34.03;21.85;;;1.90;99.90;;;;;;5014290;28;20432;-72
2022/12/21 06:08:42;;;;;;;38.30;22.02;;;2.00;99.90;;;;;;5032669;28;20041;-73
2022/12/21 06:11:18;;;;;;;36.00;22.73;;;2.00;99.90;;;;;;5014643;28;20132;-71
2022/12/21 06:13:47;;;;;;;38.25;22.70;;;2.00;99.90;;;;;;5016428;28;20045;-74
2022/12/21 06:16:23;;;;;;;34.63;21.10;;;2.00;99.90;;;;;;5014867;28;20504;-69
2022/12/21 06:18:52;;;;;;;37.25;21.15;;;2.00;99.90;;;;;;5014653;28;20050;-73
2022/12/21 06:21:20;;;;;;;42.28;22.35;;;2.10;99.90;;;;;;5031974;28;20038;-71
2022/12/21 06:23:48;;;;;;;42.15;21.77;;;2.00;99.90;;;;;;5032118;28;20488;-70
2022/12/21 06:26:18;;;;;;;47.65;24.95;;;1.90;99.90;;;;;;5031570;28;20045;-70
2022/12/21 06:28:51;;;;;;;46.40;26.63;;;1.80;99.90;;;;;;5032364;28;20400;-70
2022/12/21 06:31:19;;;;;;;41.05;25.95;;;1.70;99.90;;;;;;5032282;28;20124;-69
2022/12/21 06:33:47;;;;;;;45.50;26.60;;;1.60;99.90;;;;;;5032340;28;20045;-70
2022/12/21 06:36:15;;;;;;;43.40;24.65;;;1.60;99.90;;;;;;5031427;28;20048;-70
2022/12/21 06:38:42;;;;;;;48.08;25.67;;;1.70;99.90;;;;;;5032099;28;20046;-71
2022/12/21 06:41:12;;;;;;;44.75;24.17;;;1.80;99.90;;;;;;5030856;28;20037;-71
2022/12/21 06:43:40;;;;;;;41.43;26.07;;;1.90;99.90;;;;;;5031787;28;20042;-77
2022/12/21 06:46:11;;;;;;;99.10;51.38;;;2.00;99.90;;;;;;5031286;28;20056;-72
2022/12/21 06:48:39;;;;;;;141.73;64.68;;;2.30;99.90;;;;;;5034053;28;20119;-71
2022/12/21 06:51:12;;;;;;;79.95;43.20;;;2.60;99.90;;;;;;5035455;28;20428;-71
2022/12/21 06:53:41;;;;;;;50.20;31.55;;;2.70;99.90;;;;;;5035891;28;20057;-71
2022/12/21 06:56:31;;;;;;;46.35;28.00;;;2.90;99.90;;;;;;5035057;28;20048;-70
2022/12/21 06:59:00;;;;;;;43.50;26.35;;;3.00;99.90;;;;;;5035732;28;20045;-69
2022/12/21 07:01:31;;;;;;;39.90;24.48;;;3.00;99.90;;;;;;5035581;28;20049;-70
2022/12/21 07:03:59;;;;;;;36.00;22.65;;;3.00;99.90;;;;;;5035357;28;20045;-71
2022/12/21 07:06:29;;;;;;;37.28;23.30;;;2.60;99.90;;;;;;5035042;28;20056;-71
2022/12/21 07:08:58;;;;;;;33.88;22.05;;;2.80;99.90;;;;;;5035452;28;20451;-72
2022/12/21 07:11:27;;;;;;;35.63;21.73;;;2.60;99.90;;;;;;5035062;28;20374;-72
2022/12/21 07:13:57;;;;;;;40.40;21.65;;;2.50;99.90;;;;;;5018430;28;20088;-73
2022/12/21 07:16:24;;;;;;;36.20;20.75;;;2.40;99.90;;;;;;5035156;28;20041;-71
2022/12/21 07:18:53;;;;;;;35.50;23.02;;;2.40;99.90;;;;;;5035379;28;20037;-72
2022/12/21 07:21:22;;;;;;;34.25;20.83;;;2.70;99.90;;;;;;5017824;28;20052;-70
2022/12/21 07:23:50;;;;;;;36.35;21.52;;;2.90;99.90;;;;;;5035283;28;20379;-70
2022/12/21 07:26:22;;;;;;;36.47;23.08;;;3.00;99.90;;;;;;5000968;28;20054;-70
2022/12/21 07:28:50;;;;;;;36.97;23.05;;;2.80;99.90;;;;;;5017652;28;20038;-75
2022/12/21 07:31:20;;;;;;;32.85;21.80;;;2.70;99.90;;;;;;5035320;28;20045;-71
2022/12/21 07:33:50;;;;;;;36.00;23.50;;;2.60;99.90;;;;;;5035105;28;20122;-73
2022/12/21 07:36:19;;;;;;;43.35;23.58;;;2.50;99.90;;;;;;5034529;28;20503;-70
2022/12/21 07:38:49;;;;;;;37.58;23.85;;;2.40;99.90;;;;;;5033962;28;20042;-72
2022/12/21 07:41:17;;;;;;;47.03;23.52;;;2.30;99.90;;;;;;5017283;28;20046;-71
2022/12/21 07:43:45;;;;;;;46.88;24.15;;;2.10;99.90;;;;;;5017470;28;20045;-72
2022/12/21 07:46:14;;;;;;;44.20;23.80;;;2.30;99.90;;;;;;5034758;28;20049;-74
2022/12/21 07:48:41;;;;;;;38.50;23.50;;;2.50;99.90;;;;;;5034872;28;20042;-73
2022/12/21 07:51:12;;;;;;;42.47;23.75;;;2.60;99.90;;;;;;5017648;28;20053;-70
2022/12/21 07:53:41;;;;;;;44.00;24.33;;;2.60;99.90;;;;;;5034539;28;20045;-71
2022/12/21 07:56:14;;;;;;;49.67;27.65;;;2.60;99.90;;;;;;5000329;28;20053;-72
2022/12/21 07:58:49;;;;;;;55.40;28.63;;;2.50;99.90;;;;;;5034630;28;20048;-70
2022/12/21 08:01:20;;;;;;;47.33;28.13;;;2.40;99.90;;;;;;5007887;28;20045;-71
2022/12/21 08:03:51;;;;;;;54.35;31.48;;;2.50;99.90;;;;;;5009628;28;20041;-71
2022/12/21 08:09:12;;;;;;;61.10;34.28;;;2.40;99.90;;;;;;5025314;28;20396;-72
2022/12/21 08:11:39;;;;;;;54.75;33.45;;;2.30;99.90;;;;;;5035975;28;20073;-71
2022/12/21 08:14:09;;;;;;;60.83;34.38;;;2.30;99.90;;;;;;5008310;28;20156;-71
2022/12/21 08:16:43;;;;;;;60.63;33.28;;;2.30;99.90;;;;;;5041389;28;20052;-72
2022/12/21 08:19:11;;;;;;;62.40;32.85;;;2.40;99.90;;;;;;5006736;28;20049;-71
2022/12/21 08:21:41;;;;;;;61.38;34.17;;;2.60;99.90;;;;;;5008092;28;20099;-70
2022/12/21 08:24:14;;;;;;;66.65;33.22;;;2.80;99.90;;;;;;5022488;28;20045;-72
2022/12/21 08:26:47;;;;;;;54.53;32.78;;;2.90;99.90;;;;;;5043696;28;20052;-71
2022/12/21 08:29:17;;;;;;;66.43;34.90;;;3.00;99.90;;;;;;5004740;28;20052;-71
2022/12/21 08:31:44;;;;;;;65.18;35.45;;;3.10;99.90;;;;;;5016974;28;20178;-72
2022/12/21 08:34:12;;;;;;;62.33;35.38;;;3.20;99.90;;;;;;5036182;28;20064;-71
2022/12/21 08:36:40;;;;;;;67.43;35.00;;;3.30;99.90;;;;;;5053539;28;20391;-73
2022/12/21 08:39:07;;;;;;;58.78;33.67;;;3.40;99.90;;;;;;5019744;28;20048;-71
2022/12/21 08:41:37;;;;;;;55.15;35.55;;;3.50;99.90;;;;;;5053100;28;20036;-72
2022/12/21 08:44:05;;;;;;;60.70;35.53;;;3.70;99.90;;;;;;5053410;28;20104;-73
2022/12/21 08:46:36;;;;;;;65.95;35.38;;;3.80;99.90;;;;;;5019441;28;20041;-71
2022/12/21 08:49:03;;;;;;;64.40;35.97;;;3.90;99.90;;;;;;5035968;28;20064;-71
2022/12/21 08:51:31;;;;;;;63.78;35.63;;;3.90;99.90;;;;;;5053571;28;20045;-71
2022/12/21 08:54:05;;;;;;;61.05;36.15;;;3.70;99.90;;;;;;5035711;28;20045;-72
2022/12/21 08:56:33;;;;;;;64.05;37.22;;;3.90;99.90;;;;;;5019246;28;20122;-73
2022/12/21 08:59:06;;;;;;;70.22;35.85;;;4.10;99.90;;;;;;5035527;28;20053;-73
2022/12/21 09:01:35;;;;;;;62.03;35.85;;;4.30;99.90;;;;;;5032818;28;20037;-71
2022/12/21 09:04:03;;;;;;;67.15;36.42;;;4.50;99.90;;;;;;5048728;28;20424;-72
2022/12/21 09:06:31;;;;;;;64.80;36.88;;;4.60;99.90;;;;;;5026070;28;20107;-70
2022/12/21 09:08:58;;;;;;;64.97;37.05;;;4.60;99.90;;;;;;5032996;28;20041;-70
2022/12/21 09:11:43;;;;;;;64.80;37.70;;;4.90;99.90;;;;;;5015481;28;20039;-68
2022/12/21 09:14:21;;;;;;;64.57;37.53;;;5.00;99.90;;;;;;5017195;28;20048;-72
2022/12/21 09:16:49;;;;;;;62.85;37.85;;;5.10;99.90;;;;;;5032546;28;20029;-70
2022/12/21 09:19:23;;;;;;;65.30;38.85;;;4.90;99.90;;;;;;5032780;28;20417;-73
2022/12/21 09:21:59;;;;;;;73.82;39.00;;;4.80;99.90;;;;;;5000273;28;20045;-70
2022/12/21 09:24:29;;;;;;;76.68;38.20;;;5.10;99.90;;;;;;5016288;28;20459;-71
2022/12/21 09:27:04;;;;;;;64.28;37.65;;;5.40;99.90;;;;;;5014807;28;20072;-71
2022/12/21 09:29:34;;;;;;;61.38;37.83;;;5.50;99.90;;;;;;5015449;28;20057;-73
2022/12/21 09:32:04;;;;;;;73.47;38.73;;;5.60;99.90;;;;;;5015452;28;20095;-72
2022/12/21 09:34:44;;;;;;;67.00;38.70;;;5.60;99.90;;;;;;5015674;28;20049;-71
2022/12/21 09:37:26;;;;;;;69.40;40.75;;;5.60;99.90;;;;;;5014576;28;20404;-70
2022/12/21 09:40:15;;;;;;;59.55;37.00;;;5.70;99.90;;;;;;5031850;28;20049;-71
2022/12/21 09:43:02;;;;;;;64.70;38.70;;;5.60;99.90;;;;;;5031541;28;20056;-74
2022/12/21 09:45:33;;;;;;;;;;;5.60;99.90;;;;;;5015298;28;20046;-72
2022/12/21 09:48:25;;;;;;;70.50;37.20;;;5.70;99.90;;;;;;5015220;28;19928;-72
2022/12/21 09:51:09;;;;;;;69.38;37.35;;;6.00;99.90;;;;;;4986608;28;20059;-71
2022/12/21 09:53:47;;;;;;;65.03;37.83;;;6.20;99.90;;;;;;5032582;28;20472;-70
2022/12/21 09:56:20;;;;;;;65.10;38.22;;;6.30;99.90;;;;;;5014414;28;20057;-71
2022/12/21 09:58:50;;;;;;;56.78;37.28;;;6.60;99.90;;;;;;5016065;28;20450;-74
2022/12/21 10:02:02;;;;;;;55.58;35.03;;;6.70;99.90;;;;;;5012832;28;20457;-73
2022/12/21 10:05:02;;;;;;;63.72;35.85;;;6.80;99.90;;;;;;4988416;28;20069;-72
2022/12/21 10:07:54;;;;;;;52.40;33.85;;;6.90;99.90;;;;;;5004522;28;20060;-76
2022/12/21 10:10:40;;;;;;;56.22;34.17;;;7.00;99.90;;;;;;5018309;28;20038;-71
2022/12/21 10:13:28;;;;;;;;;;;7.00;99.90;;;;;;5020707;28;20056;-69
2022/12/21 10:16:18;;;;;;;44.83;28.25;;;7.20;99.90;;;;;;5020381;28;19929;-72
2022/12/21 10:19:17;;;;;;;39.58;25.45;;;7.20;99.90;;;;;;5017795;28;20038;-71
2022/12/21 10:22:16;;;;;;;53.33;29.48;;;7.30;99.90;;;;;;5015728;28;20437;-71
2022/12/21 10:24:49;;;;;;;48.03;28.73;;;7.40;99.90;;;;;;5018279;28;20395;-72
2022/12/21 10:27:34;;;;;;;41.95;27.77;;;7.50;99.90;;;;;;5036078;28;20124;-73
2022/12/21 10:30:01;;;;;;;43.17;28.10;;;7.70;99.90;;;;;;5018350;28;20476;-72
2022/12/21 10:32:35;;;;;;;53.40;28.42;;;7.70;99.90;;;;;;5018978;28;20532;-72
2022/12/21 10:35:37;;;;;;;52.92;30.08;;;7.90;99.90;;;;;;5018751;28;20099;-71
2022/12/21 10:38:20;;;;;;;51.88;29.75;;;8.00;99.90;;;;;;5018118;28;20049;-71
2022/12/21 10:40:49;;;;;;;;;;;8.20;99.90;;;;;;5034946;28;20041;-71
2022/12/21 10:43:16;;;;;;;50.15;31.73;;;8.20;99.90;;;;;;5034640;28;19921;-71
2022/12/21 10:45:49;;;;;;;56.72;30.92;;;8.40;99.90;;;;;;5035496;28;20038;-72
2022/12/21 10:48:19;;;;;;;54.97;32.38;;;8.50;99.90;;;;;;5018531;28;20401;-71
2022/12/21 10:50:51;;;;;;;52.00;32.97;;;8.40;99.90;;;;;;5034875;28;20049;-72
2022/12/21 10:53:27;;;;;;;55.97;33.80;;;8.60;99.90;;;;;;5003398;28;20060;-73
2022/12/21 10:55:58;;;;;;;54.45;32.08;;;9.00;99.90;;;;;;5051179;28;20052;-72
2022/12/21 10:58:31;;;;;;;64.25;35.67;;;9.00;99.80;;;;;;5052149;28;20045;-72
2022/12/21 11:01:03;;;;;;;57.00;34.30;;;9.10;99.70;;;;;;5037680;28;20041;-71
2022/12/21 11:03:36;;;;;;;56.58;35.38;;;9.40;99.20;;;;;;5055132;28;20445;-72
2022/12/21 11:06:31;;;;;;;50.55;31.05;;;9.60;98.60;;;;;;5021544;28;20041;-72
2022/12/21 11:09:01;;;;;;;56.80;34.63;;;10.20;99.90;;;;;;5021393;28;20543;-71
2022/12/21 11:11:36;;;;;;;56.35;34.60;;;10.50;97.90;;;;;;5055279;28;20056;-71
2022/12/21 11:14:27;;;;;;;56.63;33.42;;;10.60;98.20;;;;;;5036082;28;20044;-72
2022/12/21 11:17:00;;;;;;;52.85;33.15;;;11.00;96.50;;;;;;4994031;28;20424;-72
2022/12/21 11:19:34;;;;;;;57.70;33.08;;;11.20;95.90;;;;;;5009603;28;20053;-72
2022/12/21 11:22:07;;;;;;;49.72;32.15;;;11.10;95.30;;;;;;5014912;28;20042;-72
2022/12/21 11:25:02;;;;;;;51.35;31.60;;;11.40;95.30;;;;;;4996886;28;20045;-73
2022/12/21 11:27:34;;;;;;;51.35;32.67;;;11.60;94.60;;;;;;5013347;28;20453;-72
2022/12/21 11:30:16;;;;;;;53.88;33.70;;;11.60;93.50;;;;;;5006302;28;20049;-72
2022/12/21 11:32:46;;;;;;;57.08;32.92;;;11.70;93.10;;;;;;4989940;28;20049;-72
2022/12/21 11:35:26;;;;;;;51.10;32.35;;;11.80;93.20;;;;;;5012810;28;20045;-72
2022/12/21 11:37:54;;;;;;;47.40;30.27;;;12.00;92.30;;;;;;5032902;28;20038;-72
2022/12/21 11:40:26;;;;;;;54.35;31.25;;;11.90;92.00;;;;;;5034046;28;20100;-71
2022/12/21 11:43:00;;;;;;;48.38;31.58;;;11.90;91.70;;;;;;5015834;28;20064;-74
2022/12/21 11:46:08;;;;;;;50.45;30.25;;;12.20;91.80;;;;;;5018849;28;20041;-72
2022/12/21 11:49:10;;;;;;;50.40;29.38;;;12.20;90.60;;;;;;5031524;28;20113;-73
2022/12/21 11:51:49;;;;;;;41.58;27.55;;;12.20;91.00;;;;;;5015936;28;20132;-73
2022/12/21 11:54:19;;;;;;;44.45;27.85;;;12.60;90.40;;;;;;5033929;28;20046;-72
2022/12/21 11:57:00;;;;;;;51.25;28.85;;;12.60;89.10;;;;;;5017133;28;20424;-71
2022/12/21 11:59:43;;;;;;;53.80;30.02;;;12.60;89.40;;;;;;5034208;28;20394;-72
2022/12/21 12:02:22;;;;;;;56.13;29.48;;;12.70;90.40;;;;;;5033617;28;20044;-73
2022/12/21 12:05:04;;;;;;;40.70;23.90;;;12.60;88.20;;;;;;5034294;28;20073;-73
2022/12/21 12:08:03;;;;;;;39.30;24.33;;;12.60;86.80;;;;;;5016743;28;20401;-75
2022/12/21 12:10:49;;;;;;;36.67;23.50;;;12.50;85.90;;;;;;5015076;28;20037;-73
2022/12/21 12:14:01;;;;;;;45.15;24.85;;;13.00;86.80;;;;;;5032015;28;20053;-74
2022/12/21 12:16:42;;;;;;;44.88;24.83;;;13.10;84.60;;;;;;4951897;29;20055;-71
2022/12/21 12:19:43;;;;;;;39.75;22.50;;;13.40;84.20;;;;;;4951859;28;20546;-70
2022/12/21 12:22:16;;;;;;;34.72;21.35;;;13.10;82.80;;;;;;5016585;28;20057;-71
2022/12/21 12:24:43;;;;;;;37.55;21.92;;;13.30;82.50;;;;;;5032882;28;20049;-73
2022/12/21 12:27:33;;;;;;;36.92;22.95;;;13.80;82.00;;;;;;5033722;28;20041;-73
2022/12/21 12:30:14;;;;;;;41.15;23.52;;;13.60;81.00;;;;;;5033729;28;20045;-71
2022/12/21 12:33:08;;;;;;;34.22;21.42;;;13.50;80.10;;;;;;5033668;28;20038;-70
2022/12/21 12:35:53;;;;;;;32.75;21.75;;;13.20;79.20;;;;;;5023493;28;20075;-72
2022/12/21 12:38:34;;;;;;;33.35;21.20;;;13.10;79.40;;;;;;5033232;28;20045;-72
2022/12/21 12:41:19;;;;;;;37.70;22.42;;;13.20;79.50;;;;;;5033959;28;20392;-71
2022/12/21 12:43:46;;;;;;;33.95;22.00;;;13.10;78.30;;;;;;5033465;28;20493;-72
2022/12/21 12:46:28;;;;;;;35.10;22.00;;;13.00;78.50;;;;;;5032307;28;20095;-71
2022/12/21 12:49:03;;;;;;;32.55;20.95;;;13.20;78.30;;;;;;5033446;28;20128;-72
2022/12/21 12:51:49;;;;;;;40.13;22.05;;;13.10;78.20;;;;;;5032816;28;20057;-72
2022/12/21 12:54:16;;;;;;;33.53;21.02;;;13.10;77.70;;;;;;5032835;28;20045;-72
2022/12/21 12:57:07;;;;;;;34.55;21.45;;;13.00;78.00;;;;;;5032984;28;20045;-73
2022/12/21 12:59:49;;;;;;;36.88;21.52;;;13.00;78.20;;;;;;5033402;28;20041;-73
2022/12/21 13:02:29;;;;;;;32.00;21.20;;;13.20;77.60;;;;;;5033094;28;20044;-73
2022/12/21 13:05:05;;;;;;;32.42;20.40;;;13.30;77.40;;;;;;5033193;28;20042;-72
2022/12/21 13:07:49;;;;;;;35.60;21.63;;;13.40;77.20;;;;;;5015028;28;20433;-73
2022/12/21 13:10:43;;;;;;;;;;;13.40;77.10;;;;;;5033947;28;20067;-72
2022/12/21 13:13:16;;;;;;;33.97;21.40;;;13.20;76.80;;;;;;5032800;28;19921;-71
2022/12/21 13:15:53;;;;;;;42.20;25.42;;;13.20;76.70;;;;;;5015192;28;20057;-73
2022/12/21 13:18:25;;;;;;;39.20;25.65;;;13.40;77.30;;;;;;5032987;28;20065;-72
2022/12/21 13:20:57;;;;;;;44.10;25.98;;;13.20;76.30;;;;;;5032952;28;20404;-73
2022/12/21 13:23:46;;;;;;;45.03;26.65;;;13.20;76.80;;;;;;5032601;28;20132;-72
2022/12/21 13:26:44;;;;;;;41.88;25.40;;;13.20;77.10;;;;;;5015378;28;20045;-73
2022/12/21 13:29:29;;;;;;;33.42;22.77;;;13.30;76.60;;;;;;5015496;28;20115;-73